หน้าหลัก
METAR-TAF:

METAR-TAF

ท่าอากาศยาน :

Maiduguri, ไนจีเรีย

ละติจูด: 11-51N, ลองจิจูด: 013-05E, ความสูง: 354 ม.

การสังเกตสภาพอากาศปัจจุบัน

รายงานได้ทำขึ้นเมื่อ 13 ชั่วโมงและ 4 นาทีที่แล้ว ณ เวลา 11:00 UTC
ลม 14 นอตจากตะวันตกเฉียงเหนือ
อุณหภูมิ 31°C
ความชื้น 66%
ความกดอากาศ 1013 hPa
ทัศนวิสัย 10 กม. หรือมากกว่า
มีเมฆเป็นส่วนมากเว้นเป็นระยะที่ความสูง 1200 ฟุต
มีเมฆน้อยที่ความสูง 1800 ฟุต, คิวมูโลนิมบัส.

METAR: DNMA 191100Z 31014KT 9999 BKN012 FEW018CB 31/24 Q1013

เวลา: 01:04 (00:04 UTC)


TAF: หายไป

สังเกตการณ์สภาพอากาศและพยากรณ์อากาศของสนามบินมากกว่า 4000 แห่ง (รายงาน METAR และ TAF).

สถานีที่ดูได้จะแสดงไว้ด้วยจุดสีเหลืองและสีแดงบนแผนที่.

เลื่อนเมาส์ไปเหนือจุดเพื่อดูชื่อสถานี.

แล้วคลิกเพื่อดูสังเกตการณ์และการพยากรณ์สภาพอากาศ.

ในการเปลี่ยนแผนที่: คลิกที่ปุ่มสีเขียวที่มีกากบาทสีดำเพื่อซูมเข้า; ที่ปุ่มสีเขียวที่มีขีดเพื่อซูมออก; หรือที่ลูกศรสีเขียวเพื่อไปยังแผนที่ที่อยู่ติดกัน.


METAR-TAF: